Airfield :
LOGIN :

Register | Disclaimer

   EN    FR    IT 

 










Legend :    VFR   Marginal VFR   IFR   Intensive IFR   Very Intensive IFR
Visi :
Ceiling :
>= 8 km
>= 3000ft
5 to 8 km
1000 to 3000 ft
1500m to 5 km
500 to 1000 ft
800 to 1500m
200 to 500 ft
< 800m
< 200 ft
Symbols :   Thunderstorms  Fog  Heavy snow  Heavy precipitations  Wind > 20 kt
SIGMETs :     Misc.  Thunderstorms  Icing  Turbulence  Mountain Waves  Volcanic Ashes







- Airport Elevation : 5600 ft
- IATA code : SMV


LSZS - Samedan

CURRENT METAR :
  • 211520Z 29009KT CAVOK 12/M04 Q1020 RMK T

EXPIRED METARs :
  • 211450Z 35005KT 270V040 CAVOK 13/M05 Q1020 RMK S
  • 211420Z 01006KT CAVOK 12/M06 Q1020 RMK R
  • 211350Z 01006KT 270V090 CAVOK 13/M04 Q1020 RMK Q
  • 211320Z 36006KT 330V040 CAVOK 13/M05 Q1021 RMK P
  • 211250Z 02009KT 340V050 CAVOK 12/M04 Q1021 RMK O

TAF TAF LSZS
Valid from the 21 at 15:00 until the 22 at 00:00 UTC


211425Z 2115/2124 VRB03KT CAVOK TX12/2115Z
ATIS : +41 81 834 93 24
No reported NOTAMs for that airfield.



MET'MAP, your aeronautical weather chart ! - Copyright ORBIFLY December 2007 - Disclaimer

ORBIFLY MET'MAP TEAM :

Programming & Development : Alexandra Zaïnal
Concept & Development : Baudouin d'Aumeries
Co-Development & Prog : Marc-Olivier Méhu
Technical & hardware support : Manuel Goepfert

Contact : metmap@orbifly.com




SOURCES & CREDITS :

   NOAA